Etusivu
METAR-TAF:

METAR-TAF

Lentoasemat :

Worland Municipal Airport

Worland, Wyoming, Yhdysvallat

Leveyspiiri: 43-57-57N, Pituuspiiri: 107-57-03W, korkeus merenpinnasta: 1288 m

Tämänhetkinen sää

Tämä raportti tehtiin 42 minuuttia sitten, kello 08.53 UTC
tyyntä
Lämpötila 16°C
Kosteus 39%
Ilmanpaine 1017 hPa
Näkyvyys: 16.1 km
selkeää

METAR: KWRL 140853Z AUTO 00000KT 10SM CLR 16/02 A3004 RMK AO2 SLP126 T01560017 50005

Aika: 03:35 (09:35 UTC)

Sääennuste

Tämä raportti tehtiin 4 tuntia ja 1 minuuttia sitten, kello 05.34 UTC
Ennuste voimassa 14. päivästä klo 06 UTC - 15. päivään klo 06 UTC
Tuuli 8 kn kaakosta
Näkyvyys: 10 km
selkeää
From 14. päivästä klo 1000 UTC
Tuuli 5 kn eri suunnista
Näkyvyys: 10 km
selkeää
From 15. päivästä klo 0300 UTC
Tuuli 5 kn etelästä
Näkyvyys: 10 km
selkeää

TAF: KWRL 140534Z 1406/1506 13008KT P6SM SKC FM141000 VRB05KT P6SM SKC FM150300 18005KT P6SM SKC

Säähavainnot ja -ennusteet yli 4000 lentoasemalta (METAR- ja TAF-raportit).

Käytössä olevat sääasemat on merkitty karttaan keltaisilla ja punaisilla pisteillä.

Aseta hiiri pisteen päälle nähdäksesi sääaseman nimen.

Klikkaa sitten nähdäksesi säähavainnot ja -ennusteet.

Kartan vaihtaminen: klikkaa mustalla rastilla varustettuja vihreitä pisteitä, niin voit zoomata sisään; viivalla varustettua vihreää pistettä, niin voit zoomata ulos tai vihreitä nuolia, niin pääset viereisille kartoille.


METAR-TAF: